Sonic Adventure (DX): Overall Rankings

Records: Times | Rings | Scores | Races | Bosses | Freestyle
Leaders: Times | Rings | Scores | Races | Bosses | Freestyle | Overall
Rank Player Percent Points Date Grade
1 Sonicspeedruner 98.1% 328 09-18-17 S
2 Gamepro011 98.0% 338 09-18-17 A
3 DarkPolarNight 96.8% 539 09-18-17 A
4 Jawzun 93.3% 1152 09-18-17 A
5 Dashjump 91.8% 1416 09-18-17 A
6 DarkspinesSonic 89.9% 1733 09-18-17 A
7 Avento128bits 89.8% 1764 09-18-17 A
8 ike6252 89.6% 1798 09-18-17 A
9 F-Man 87.7% 2114 09-18-17 A
10 Coolfansonic 87.3% 2187 09-18-17 A
11 HyperSonic7701 84.5% 2675 09-18-17 A
12 TheRealShadnic 84.1% 2741 09-18-17 A
13 yoshifan 82.9% 2957 09-18-17 A
14 frankoredstrato 82.5% 3026 09-18-17 A
15 francisco 81.5% 3201 09-18-17 A
16 Marth 81.3% 3235 09-18-17 A
17 InferSaime 80.1% 3432 09-18-17 A
18 PfoSonic 79.7% 3514 09-18-17 B
19 Paragod 79.2% 3590 09-18-17 B
20 THC98 78.3% 3744 09-18-17 B
21 Stefan 76.0% 4142 09-18-17 B
22 RPGnutter 73.9% 4510 09-18-17 B
23 bertin 73.7% 4539 09-18-17 B
24 sonicam 71.7% 4891 09-18-17 B
25 drminus 70.3% 5130 09-18-17 B
26 xXMegaManXx 70.3% 5131 09-18-17 B
27 Combo 66.0% 5887 09-18-17 B
28 chainchumper 65.8% 5917 09-18-17 B
29 chaos shadow 65.3% 5999 09-18-17 B
30 SkyLights 64.8% 6090 09-18-17 B
31 Diamond 62.6% 6469 09-18-17 B
32 Auriman1 60.8% 6780 09-18-17 B
33 OmegaDJ 60.7% 6791 09-18-17 B
34 GerbilSoft 60.7% 6793 09-18-17 B
35 magnum12 59.8% 6946 09-18-17 C
36 Thorn 57.7% 7312 09-18-17 C
37 P1 Pause 57.5% 7351 09-18-17 C
38 mike89 56.4% 7537 09-18-17 C
39 Groudon199 54.5% 7877 09-18-17 C
40 Dave Cramer 54.4% 7895 09-18-17 C
41 Shadow Jacky 53.4% 8061 09-18-17 C
42 Parax 53.2% 8105 09-18-17 C
43 Psymar 48.3% 8938 09-18-17 C
44 Arch 47.6% 9061 09-18-17 C
45 Chao_Fan 46.6% 9244 09-18-17 C
46 Quartz 45.6% 9416 09-18-17 C
47 mauserman 45.3% 9461 09-18-17 C
48 teamblackarms 44.7% 9563 09-18-17 C
49 James_Bertolli 43.6% 9755 09-18-17 C
50 Psyknux 43.4% 9790 09-18-17 C
51 NintenDan 43.2% 9834 09-18-17 C
52 Webber3000 42.8% 9895 09-18-17 C
53 Turbos 42.7% 9923 09-18-17 C
54 Cream147 42.2% 9996 09-18-17 C
55 videogamemaster777 42.1% 10023 09-18-17 C
56 Ring Rush 42.0% 10042 09-18-17 C
57 Siavash Tazari 41.9% 10052 09-18-17 C
58 Fr3nZy 41.6% 10112 09-18-17 C
59 buddychaos0415 41.2% 10175 09-18-17 C
60 SadisticMystic 40.6% 10285 09-18-17 C
61 eggFL 40.1% 10368 09-18-17 C
62 ethmar 39.7% 10431 09-18-17 D
63 SB737 38.3% 10677 09-18-17 D
64 supersonic465 37.7% 10781 09-18-17 D
65 supersonicfan 37.4% 10837 09-18-17 D
66 FuzZerd 36.1% 11066 09-18-17 D
67 Aitamen 35.7% 11132 09-18-17 D
68 elecmouse101 35.4% 11183 09-18-17 D
69 BigAL49 35.2% 11212 09-18-17 D
70 danieldude 35.0% 11243 09-18-17 D
71 metanightmare22 34.0% 11419 09-18-17 D
72 Cyan Ryan 33.9% 11432 09-18-17 D
73 Austinf 33.6% 11491 09-18-17 D
74 dabestgamer 33.6% 11493 09-18-17 D
75 MiStEr_ShAoLiN 33.5% 11505 09-18-17 D
76 Andrea Ritsu 32.6% 11662 09-18-17 D
77 itsPersonnal 31.8% 11803 09-18-17 D
78 SilvertheAlmighty 31.2% 11904 09-18-17 D
79 Cybrax 31.2% 11909 09-18-17 D
80 Nim 30.8% 11980 09-18-17 D
81 JamminX42 29.3% 12233 09-18-17 D
82 Staf 29.1% 12263 09-18-17 D
83 VMU Player Banned 29.1% 12279 09-18-17 D
84 The T 28.7% 12348 09-18-17 D
85 Omega Rafael Santos 28.6% 12351 09-18-17 D
86 EngiNerd 28.5% 12375 09-18-17 D
87 lordmetalsonic 27.9% 12477 09-18-17 D
88 welldooder64 27.2% 12591 09-18-17 D
89 The Great Lord Mick 27.1% 12623 09-18-17 D
90 GreatStar 27.0% 12641 09-18-17 D
90 Sondow 27.0% 12641 09-18-17 D
92 Hipertails12 26.9% 12644 09-18-17 D
93 LinksDarkArrows 26.7% 12686 09-18-17 D
94 Mastakirby 26.5% 12721 09-18-17 D
95 Skylace 25.5% 12894 09-18-17 D
96 Rolken 24.3% 13106 09-18-17 D
97 a_moustache 24.2% 13125 09-18-17 D
98 Kogen Player Banned 22.5% 13406 09-18-17 D
99 Spinballwizard 22.5% 13411 09-18-17 D
100 Xia 22.5% 13420 09-18-17 D
101 Twilisailor 22.0% 13495 09-18-17 D
102 f0rever_zer0 21.9% 13509 09-18-17 D
103 Cutiefox 21.8% 13527 09-18-17 D
104 Dekuboy 21.6% 13578 09-18-17 D
105 Don 21.3% 13614 09-18-17 D
106 Game_Complete 21.3% 13629 09-18-17 D
107 Miles9999 21.2% 13639 09-18-17 D
108 andres430 21.2% 13643 09-18-17 D
109 Cruizer 20.9% 13693 09-18-17 D
110 iSonicKid2K 20.9% 13696 09-18-17 D
111 SADXTryHard 20.2% 13806 09-18-17 D
112 GarnetPrincess 20.1% 13828 09-18-17 D
113 AxlThunder 19.0% 14028 09-18-17 E
114 knuckles_sonic8 18.7% 14066 09-18-17 E
115 The Knuckles Chao 18.4% 14117 09-18-17 E
116 KinkyCadence 18.2% 14156 09-18-17 E
117 Team_Yoshi 18.0% 14200 09-18-17 E
118 Termon 17.9% 14218 09-18-17 E
119 LittleBigness 17.8% 14227 09-18-17 E
120 FoxBoy 17.8% 14229 09-18-17 E
121 SonicWinDX 17.6% 14266 09-18-17 E
122 Drakodan 16.8% 14395 09-18-17 E
123 Sonic Singularity 16.2% 14505 09-18-17 E
124 Pokemonmaster888 15.8% 14581 09-18-17 E
125 MPit08 14.8% 14747 09-18-17 E
126 SilverSonic 14.6% 14775 09-18-17 E
127 koinu93 14.3% 14826 09-18-17 E
128 WeegeeZV 14.2% 14844 09-18-17 E
129 Mo Player Banned 14.2% 14857 09-18-17 E
130 N 14.1% 14863 09-18-17 E
131 HyperSonic64 13.9% 14896 09-18-17 E
132 booo95 13.8% 14916 09-18-17 E
133 Cod4Scopes 13.6% 14958 09-18-17 E
134 paulie9990 13.5% 14971 09-18-17 E
135 Chawkk 13.5% 14974 09-18-17 E
136 Jerzia 13.5% 14976 09-18-17 E
137 SuperSonic101 13.2% 15025 09-18-17 E
138 Maxinfamily 13.1% 15046 09-18-17 E
139 Hunters13 13.0% 15051 09-18-17 E
140 LilZero 12.8% 15089 09-18-17 E
141 Kanimayo_Jp 12.6% 15129 09-18-17 E
142 BrokenArthritis 12.5% 15154 09-18-17 E
143 PsyBorg 12.4% 15160 09-18-17 E
144 Flying Fox 12.4% 15170 09-18-17 E
145 sonicspeed 12.2% 15202 09-18-17 E
146 douglas 12.1% 15220 09-18-17 E
147 Therio 12.0% 15239 09-18-17 E
148 Matt_TY 11.6% 15293 09-18-17 E
149 thewaytodawnnn 11.4% 15329 09-18-17 E
150 Cooljay 11.1% 15382 09-18-17 E
151 SeaWolf 10.8% 15448 09-18-17 E
152 SuperBlitzCraig 10.7% 15462 09-18-17 E
153 joecoolgames 10.7% 15465 09-18-17 E
154 videogamer1014 10.6% 15473 09-18-17 E
155 AC-Tygo 10.4% 15502 09-18-17 E
156 welshmoose05 10.3% 15522 09-18-17 E
157 OddCook 10.2% 15544 09-18-17 E
158 crazy1993 10.0% 15572 09-18-17 E
159 TFEC Headshot 9.9% 15597 09-18-17 E
160 Mcshuggets 9.7% 15637 09-18-17 E
161 niscool 9.6% 15651 09-18-17 E
162 nuckrieg 9.3% 15697 09-18-17 E
163 SonicAD 9.3% 15701 09-18-17 E
164 Mariobutch 9.3% 15702 09-18-17 E
165 Irregular Zero 9.3% 15707 09-18-17 E
166 Shadowthegreat 9.2% 15712 09-18-17 E
167 superjupi 9.2% 15714 09-18-17 E
168 SirTobbii 9.1% 15726 09-18-17 E
169 sonamyfan666 8.9% 15761 09-18-17 E
170 SonicKnuckles 8.8% 15788 09-18-17 E
171 iarebored 8.7% 15797 09-18-17 E
172 Powerjohn25 8.7% 15812 09-18-17 E
173 SaviourDC 8.6% 15824 09-18-17 E
174 adf 8.4% 15860 09-18-17 E
175 Werey 8.3% 15876 09-18-17 E
176 Megaman EXE565 8.2% 15895 09-18-17 E
177 timpkmn89 7.7% 15985 09-18-17 E
178 Platformer 7.6% 15986 09-18-17 E
179 wheatrich 7.6% 15996 09-18-17 E
180 ArcticDragon 7.6% 15999 09-18-17 E
181 FocusSight64 7.4% 16037 09-18-17 E
182 Swift Hobo 7.3% 16040 09-18-17 E
183 KitsuneYamaro 7.2% 16060 09-18-17 E
184 ModifiedMonkee 7.2% 16063 09-18-17 E
185 Rickyman48 7.1% 16080 09-18-17 E
186 Triseena 7.1% 16085 09-18-17 E
187 dShadow 6.7% 16142 09-18-17 E
188 Destroyer121121 6.7% 16151 09-18-17 E
189 CyberShadow 6.5% 16177 09-18-17 E
190 slade23 6.5% 16179 09-18-17 E
191 Starlight Sable 6.5% 16191 09-18-17 E
192 IsisDazs 6.3% 16214 09-18-17 E
193 BlankTH 6.2% 16232 09-18-17 E
194 Monkeh 6.2% 16238 09-18-17 E
195 SonicU260 6.0% 16264 09-18-17 E
196 Redd 5.9% 16281 09-18-17 E
197 Richied 5.9% 16287 09-18-17 E
198 Badlex727 5.9% 16288 09-18-17 E
199 DaDude 5.8% 16314 09-18-17 E
200 Zip 5.7% 16330 09-18-17 E
201 Swinkly 5.6% 16334 09-18-17 E
202 Vicklaw 5.6% 16339 09-18-17 E
203 sonicd5 5.6% 16345 09-18-17 E
204 ALundstrom10 5.3% 16387 09-18-17 E
205 tal39h 5.2% 16402 09-18-17 E
206 VeritasDL 5.2% 16414 09-18-17 E
207 Kirbymon30 5.1% 16432 09-18-17 E
208 soniccoloursunleashed 5.0% 16437 09-18-17 E
209 Bass 5.0% 16442 09-18-17 E
210 Drflash55 5.0% 16447 09-18-17 E
211 superiorsonic 4.8% 16479 09-18-17 E
212 neaolas 4.8% 16481 09-18-17 E
213 zapp 4.7% 16490 09-18-17 E
214 Yish 4.7% 16501 09-18-17 E
215 UninspiredUsername 4.6% 16515 09-18-17 E
216 Sonicsuperstar1 4.6% 16520 09-18-17 E
217 gamefreak1292 4.5% 16532 09-18-17 E
218 Sora_yx 4.3% 16570 09-18-17 E
219 Chaos_Overlord 4.2% 16579 09-18-17 E
220 TakaRikka 4.1% 16605 09-18-17 E
221 Valfore 4.0% 16614 09-18-17 E
222 Dage4Aquatic 3.9% 16643 09-18-17 E
223 ShinigamiMachine 3.8% 16649 09-18-17 E
224 Regano1000 3.8% 16653 09-18-17 E
225 MK 3.7% 16666 09-18-17 E
226 Ace747 3.6% 16684 09-18-17 E
227 Illidan 3.2% 16762 09-18-17 E
228 HHNNBBHHN 3.2% 16763 09-18-17 E
229 Venick409 3.1% 16771 09-18-17 E
230 Sithwarrior26 3.1% 16772 09-18-17 E
231 nman36 3.1% 16774 09-18-17 E
232 Brian_pso 3.1% 16775 09-18-17 E
233 SkyBon 3.1% 16782 09-18-17 E
234 Egor305 3.0% 16789 09-18-17 E
235 TheChaosEmeraIds 3.0% 16797 09-18-17 E
236 dekki1234 2.9% 16802 09-18-17 E
237 ingx24 2.9% 16803 09-18-17 E
238 Nickson98 2.9% 16809 09-18-17 E
239 Colomb_30 2.9% 16814 09-18-17 E
240 Fozer 2.9% 16816 09-18-17 E
241 FSSRandomvids 2.8% 16829 09-18-17 E
242 Aiko 2.7% 16836 09-18-17 E
243 sonic29887 2.7% 16846 09-18-17 E
244 TheUltraBlur 2.6% 16855 09-18-17 E
245 1stKirbyever 2.6% 16860 09-18-17 E
246 TimTH 2.5% 16875 09-18-17 E
247 Th4tN1nj4Turtl3 2.4% 16894 09-18-17 E
248 ieatatsonic 2.3% 16905 09-18-17 E
249 Cort_pso 2.3% 16909 09-18-17 E
250 Mariosonic15 2.3% 16913 09-18-17 E
251 Doom-9 2.3% 16920 09-18-17 E
252 Artie 2.2% 16923 09-18-17 E
253 HermitHelmet 2.1% 16941 09-18-17 E
253 MStitomix 2.1% 16941 09-18-17 E
255 Got4n 2.0% 16956 09-18-17 E
255 SuperSonic71087 2.0% 16956 09-18-17 E
257 Jose_15 2.0% 16968 09-18-17 E
258 Questionguy555 1.9% 16977 09-18-17 E
259 djmat 1.9% 16987 09-18-17 E
260 SuperSonicfan9595 1.8% 16991 09-18-17 E
261 Heroes_Hater 1.7% 17008 09-18-17 E
262 sonicandamy Player Banned 1.7% 17009 09-18-17 E
263 LancexExWx 1.7% 17019 09-18-17 E
264 Paixii 1.7% 17021 09-18-17 E
265 son1cgu1tar 1.7% 17024 09-18-17 E
266 Mankster101 1.6% 17036 09-18-17 E
267 BallzeH 1.6% 17037 09-18-17 E
267 BecauseWarAnvil 1.6% 17037 09-18-17 E
269 Jamixesa 1.5% 17046 09-18-17 E
270 SpiritDragon1995 1.5% 17056 09-18-17 E
271 Shanekilz 1.5% 17058 09-18-17 E
272 Crydio 1.4% 17062 09-18-17 E
273 MarewBFN 1.4% 17075 09-18-17 E
274 Sonique Hedgehog 1.3% 17081 09-18-17 E
274 stanski 1.3% 17081 09-18-17 E
276 p0ker 1.3% 17092 09-18-17 E
277 Blue Infamy 1.2% 17097 09-18-17 E
278 ErrortheCucco 1.2% 17108 09-18-17 E
279 Rikum22 1.2% 17111 09-18-17 E
280 Arthas 1.1% 17112 09-18-17 E
281 sonic1001 1.1% 17119 09-18-17 E
282 AJSIV 1.1% 17123 09-18-17 E
282 WingedInsignia 1.1% 17123 09-18-17 E
284 syco1098 1.1% 17126 09-18-17 E
285 Sonic the Hedgehod16 1.1% 17127 09-18-17 E
286 ASINISTERTACO 1.0% 17136 09-18-17 E
287 Calfd 1.0% 17139 09-18-17 E
288 sonicfan9 1.0% 17140 09-18-17 E
289 BlackArmsShadow 0.9% 17149 09-18-17 E
290 themachoman202 0.9% 17151 09-18-17 E
291 darkstarblaze 0.9% 17152 09-18-17 E
292 shadowblast63 Player Banned 0.9% 17156 09-18-17 E
293 Greham Adelphis 0.9% 17158 09-18-17 E
294 Fivavoa 0.9% 17160 09-18-17 E
294 MastaToken 0.9% 17160 09-18-17 E
296 Mr. Jones 0.9% 17162 09-18-17 E
297 Ben1502 0.8% 17164 09-18-17 E
298 arcfx1985 0.8% 17165 09-18-17 E
299 ptorflaxendrosis 0.8% 17166 09-18-17 E
300 TommyeAsY 0.8% 17167 09-18-17 E
301 Gvozdevik 0.8% 17172 09-18-17 E
302 FlandreScarlet9999vr 0.8% 17173 09-18-17 E
302 Knuckles 0.8% 17173 09-18-17 E
304 Zeldocto 0.8% 17175 09-18-17 E
305 BeeAwwb 0.8% 17176 09-18-17 E
305 KaM Mark MaK 0.8% 17176 09-18-17 E
307 ShadouZaHejjihoggu 0.7% 17185 09-18-17 E
308 Sarger001 0.7% 17189 09-18-17 E
309 dragondragon18 0.7% 17193 09-18-17 E
309 Sonic62 0.7% 17193 09-18-17 E
311 Sonic The Star 0.7% 17194 09-18-17 E
312 darkersupershadic 0.7% 17195 09-18-17 E
313 BioShadow 0.6% 17199 09-18-17 E
314 Grady219 0.6% 17200 09-18-17 E
314 Shadygamerfreak 0.6% 17200 09-18-17 E
314 SonicK100 0.6% 17200 09-18-17 E
317 Sogeking 0.6% 17201 09-18-17 E
318 Jawaah 0.6% 17207 09-18-17 E
319 Antek 0.6% 17210 09-18-17 E
320 Klaus 0.6% 17212 09-18-17 E
321 SilverK 0.6% 17213 09-18-17 E
322 SpinDashMaster 0.5% 17220 09-18-17 E
323 Videogamer123 0.5% 17222 09-18-17 E
324 oTaiIilLsS 0.4% 17236 09-18-17 E
325 isaihtb11 0.4% 17237 09-18-17 E
326 OhNoes! 0.4% 17241 09-18-17 E
326 zaktu40 0.4% 17241 09-18-17 E
328 gaara1234 0.4% 17244 09-18-17 E
328 S-MS32X-S 0.4% 17244 09-18-17 E
330 gamed00d 0.4% 17245 09-18-17 E
330 Mad Andy 0.4% 17245 09-18-17 E
332 Mister_Slick 0.3% 17256 09-18-17 E
333 Rush Hero 0.3% 17260 09-18-17 E
333 Sonic06Fan 0.3% 17260 09-18-17 E
335 SonicMega167 0.3% 17265 09-18-17 E
336 Iwannabelink 0.2% 17268 09-18-17 E
337 sonknuck23 0.2% 17270 09-18-17 E
338 DanielTheFalcon 0.2% 17280 09-18-17 E
338 gamer1245 0.2% 17280 09-18-17 E
340 Burningskull123 0.1% 17285 09-18-17 E
341 Sonicontherun 0.1% 17296 09-18-17 E
342 Lil_Dude 0.1% 17301 09-18-17 E
343 antiwwe 0.0% 17302 09-18-17 E
344 Tyrouble 0.0% 17304 09-18-17 E
345 Genuine Hedgehog 0.0% 17305 09-18-17 E
345 SonataSpinDash 0.0% 17305 09-18-17 E
347 Cbwade15 0.0% 17309 09-18-17 E
348 MegabombBlade 0.0% 17319 09-18-17 E
348 neji_hyuuga 0.0% 17319 09-18-17 E
348 Over 0.0% 17319 09-18-17 E
348 sdj6707 Player Banned 0.0% 17319 09-18-17 E
348 Tran Sonic Fan Player Banned 0.0% 17319 09-18-17 E

This page is using the New Data Table System. [FUTURE]


-- Back to Normal Skin --
Game ID: 3 | Category ID: 10
Hits: 70,667 | Hits This Month: 149 | DB Calls: 16 | Mem Usage: 5.47 MB | Time: 0.13s | Printable

The Sonic Center v3.9
Copyright 2003-2011 by The Sonic Center Team.